createdAt,value
2023-04-29T00:48:08.157Z,16.70
2023-04-29T00:50:36.820Z,17.10
2023-04-29T01:02:54.518Z,17.00
2023-04-29T01:24:36.397Z,16.70
2023-04-29T01:45:57.907Z,16.70
2023-04-29T01:48:25.978Z,16.60
2023-04-29T01:50:53.667Z,16.60
2023-04-29T01:53:21.247Z,16.60
2023-04-29T01:55:49.009Z,16.60
2023-04-29T02:07:14.954Z,16.50
2023-04-29T02:09:42.571Z,16.50
2023-04-29T02:20:47.715Z,16.40
2023-04-29T02:23:15.816Z,16.80
2023-04-29T02:25:43.132Z,16.40
2023-04-29T02:29:25.711Z,16.40
2023-04-29T02:31:53.367Z,16.40
2023-04-29T02:34:20.793Z,16.50
2023-04-29T02:36:48.102Z,17.10
2023-04-29T02:44:02.752Z,16.50
2023-04-29T02:46:30.179Z,16.60
2023-04-29T02:48:58.137Z,17.20
2023-04-29T03:14:48.289Z,16.60
2023-04-29T03:17:15.772Z,16.70
2023-04-29T03:19:44.189Z,16.70
2023-04-29T03:36:55.586Z,16.20
2023-04-29T03:39:23.824Z,16.60
2023-04-29T03:51:34.014Z,16.30
2023-04-29T03:54:25.410Z,16.80
2023-04-29T03:56:52.728Z,16.70
2023-04-29T04:06:18.244Z,16.40
2023-04-29T04:08:46.392Z,16.40
2023-04-29T04:11:17.706Z,16.40
2023-04-29T04:18:35.774Z,16.40
2023-04-29T04:21:10.758Z,16.40
2023-04-29T04:23:41.013Z,16.30
2023-04-29T04:26:10.321Z,16.30
2023-04-29T04:29:00.820Z,16.30
2023-04-29T04:32:06.959Z,16.30
2023-04-29T04:54:02.903Z,16.20
2023-04-29T05:22:02.295Z,16.40
2023-04-29T05:24:30.307Z,16.40
2023-04-29T05:26:57.682Z,16.50
2023-04-29T05:32:35.873Z,16.70
2023-04-29T05:35:07.181Z,17.00
2023-04-29T05:37:35.904Z,16.90
2023-04-29T05:43:49.512Z,17.10
2023-04-29T05:49:27.474Z,17.20
2023-04-29T05:54:58.720Z,17.30
2023-04-29T05:57:32.022Z,17.80
2023-04-29T06:06:38.587Z,17.50
2023-04-29T06:58:23.648Z,20.80
2023-04-29T07:00:51.630Z,21.00
2023-04-29T07:03:19.443Z,21.40
2023-04-29T07:05:47.325Z,21.50
2023-04-29T07:08:14.953Z,21.30
2023-04-29T07:10:42.371Z,21.30
2023-04-29T07:13:09.894Z,21.30
2023-04-29T07:15:37.705Z,21.60
2023-04-29T07:18:06.866Z,21.60
2023-04-29T07:20:37.228Z,21.30
2023-04-29T07:23:05.392Z,21.40
2023-04-29T07:25:33.707Z,21.80
2023-04-29T07:28:01.545Z,21.20
2023-04-29T07:30:29.043Z,21.20
2023-04-29T07:32:56.527Z,21.10
2023-04-29T07:35:24.972Z,21.00
2023-04-29T07:37:52.696Z,21.00
2023-04-29T07:40:20.214Z,20.80
2023-04-29T07:42:48.980Z,20.80
2023-04-29T07:45:16.654Z,20.70
2023-04-29T07:47:45.982Z,21.10
2023-04-29T07:50:15.057Z,20.70
2023-04-29T07:52:43.404Z,21.00
2023-04-29T07:55:11.179Z,20.50
2023-04-29T07:57:39.787Z,20.40
2023-04-29T08:00:08.860Z,20.60
2023-04-29T08:02:43.006Z,20.40
2023-04-29T08:05:13.956Z,20.30
2023-04-29T08:07:42.411Z,20.60
2023-04-29T08:10:14.628Z,20.60
2023-04-29T08:39:05.334Z,19.80
2023-04-29T08:41:33.896Z,19.70
2023-04-29T08:44:01.642Z,20.10
2023-04-29T09:08:41.390Z,19.40
2023-04-29T09:11:15.129Z,19.40
2023-04-29T09:13:45.536Z,19.30
2023-04-29T10:12:57.231Z,18.90
2023-04-29T10:21:58.006Z,19.00
2023-04-29T10:24:31.007Z,18.50
2023-04-29T10:39:54.950Z,18.60
2023-04-29T11:09:41.626Z,20.30
2023-04-29T11:12:10.850Z,20.80
2023-04-29T11:14:43.339Z,20.90
2023-04-29T11:17:15.550Z,20.70
2023-04-29T11:19:53.617Z,21.10
2023-04-29T11:22:31.209Z,21.10
2023-04-29T11:25:10.516Z,20.80
2023-04-29T11:27:40.352Z,20.90
2023-04-29T11:30:08.581Z,21.40
2023-04-29T11:32:42.658Z,21.10
2023-04-29T11:35:18.176Z,21.50
2023-04-29T11:37:47.181Z,21.20
2023-04-29T11:40:15.581Z,21.30
2023-04-29T11:42:50.296Z,21.30
2023-04-29T11:45:19.389Z,21.70
2023-04-29T11:47:49.247Z,21.30
2023-04-29T11:50:19.988Z,21.40
2023-04-29T11:52:50.181Z,21.40
2023-04-29T11:55:19.284Z,21.80
2023-04-29T11:57:49.582Z,21.80
2023-04-29T12:00:17.282Z,21.60
2023-04-29T12:02:47.139Z,21.70
2023-04-29T12:05:16.558Z,22.30
2023-04-29T12:07:45.091Z,21.80
2023-04-29T12:10:13.295Z,21.90
2023-04-29T12:12:44.021Z,22.40
2023-04-29T12:15:12.803Z,22.00
2023-04-29T12:17:41.268Z,22.60
2023-04-29T12:20:10.369Z,22.00
2023-04-29T12:22:38.001Z,22.10
2023-04-29T12:25:07.531Z,22.80
2023-04-29T12:27:38.838Z,22.10
2023-04-29T12:30:10.213Z,22.10
2023-04-29T12:32:38.591Z,22.20
2023-04-29T12:35:07.397Z,22.50
2023-04-29T12:37:35.366Z,22.20
2023-04-29T12:40:03.564Z,22.10
2023-04-29T12:42:35.028Z,22.10
2023-04-29T12:45:02.620Z,22.10
2023-04-29T12:47:34.800Z,22.60
2023-04-29T12:50:02.746Z,21.90
2023-04-29T12:52:30.798Z,21.90
2023-04-29T12:54:58.735Z,21.80
2023-04-29T12:57:28.412Z,21.70
2023-04-29T12:59:56.794Z,21.40
2023-04-29T13:02:24.408Z,21.30
2023-04-29T13:04:56.578Z,21.40
2023-04-29T13:07:28.783Z,20.70
2023-04-29T13:09:59.210Z,20.70
2023-04-29T13:25:51.193Z,20.30
2023-04-29T13:34:34.735Z,20.30
2023-04-29T13:37:02.091Z,20.60
2023-04-29T13:39:29.856Z,20.30
2023-04-29T13:41:59.200Z,20.20
2023-04-29T13:44:37.686Z,20.50
2023-04-29T13:48:03.844Z,20.00
2023-04-29T14:01:05.212Z,19.80
2023-04-29T14:03:19.588Z,19.70
2023-04-29T14:05:47.554Z,20.10
2023-04-29T14:11:26.324Z,19.60
2023-04-29T14:13:56.214Z,19.50
2023-04-29T14:19:34.014Z,19.60
2023-04-29T14:28:17.541Z,19.50
2023-04-29T15:05:27.934Z,19.30
2023-04-29T15:24:15.007Z,19.30
2023-04-29T15:44:28.831Z,19.20
2023-04-29T20:14:04.994Z,16.90
2023-04-29T20:16:35.260Z,16.90
2023-04-29T20:19:28.988Z,17.00
2023-04-29T20:21:58.199Z,17.50
2023-04-29T20:24:29.607Z,17.10
2023-04-29T20:27:01.047Z,17.20
2023-04-29T21:24:21.947Z,17.10
2023-04-29T21:27:16.158Z,17.50
2023-04-29T21:29:44.134Z,17.10
2023-04-29T21:32:12.314Z,17.60
2023-04-29T21:37:56.746Z,17.10
2023-04-29T21:43:35.535Z,17.10
2023-04-29T21:46:07.459Z,17.20
2023-04-29T21:48:35.768Z,17.40
2023-04-29T21:51:06.075Z,17.10
2023-04-29T21:53:34.797Z,17.20
2023-04-29T21:56:02.386Z,17.10
2023-04-29T22:06:34.013Z,17.20
2023-04-29T22:09:02.860Z,17.50
2023-04-29T22:12:24.988Z,17.30
2023-04-29T22:14:52.596Z,17.10
2023-04-29T22:17:19.924Z,17.10
2023-04-29T22:19:48.050Z,17.50
2023-04-29T22:22:15.457Z,17.10
2023-04-29T22:24:43.164Z,17.50
2023-04-29T22:27:11.456Z,17.00
2023-04-29T22:29:43.287Z,16.80
2023-04-29T22:32:11.080Z,17.40
2023-04-29T22:34:40.079Z,17.00
2023-04-29T22:37:07.669Z,17.40
2023-04-29T22:42:39.452Z,16.90
2023-04-29T22:45:07.980Z,17.30
2023-04-29T22:47:35.454Z,16.90
2023-04-29T22:53:11.398Z,16.80
2023-04-29T22:55:39.501Z,17.20
2023-04-29T22:58:08.039Z,16.80
2023-04-29T23:00:35.780Z,17.10
2023-04-29T23:03:03.454Z,17.20
2023-04-29T23:06:00.040Z,16.80
2023-04-29T23:08:53.822Z,16.70
2023-04-29T23:14:34.453Z,16.70
2023-04-29T23:17:01.851Z,17.00
2023-04-29T23:19:29.201Z,16.60
2023-04-29T23:22:27.093Z,17.10
2023-04-29T23:24:54.490Z,16.10
2023-04-29T23:27:21.889Z,17.00
2023-04-29T23:30:41.023Z,16.60
2023-04-29T23:33:09.129Z,16.10
2023-04-29T23:36:27.517Z,16.60
2023-04-29T23:38:55.697Z,17.00
2023-04-29T23:41:23.597Z,16.60
2023-04-29T23:43:51.692Z,17.00
2023-04-29T23:46:19.547Z,16.40
2023-04-29T23:48:47.285Z,17.00
2023-04-29T23:51:15.723Z,16.60
2023-04-29T23:53:43.430Z,17.00
2023-04-29T23:56:11.208Z,16.90
2023-04-29T23:58:43.662Z,16.90
